Time;durP1;ratioP1;P1;durP2;ratioP2;P2;SDS_P1;SDS_P2;PMS_P1;PMS_P2;Temp;Humidity;BMP_temperature;BMP_pressure;BME280_temperature;BME280_humidity;BME280_pressure;Samples;Min_cycle;Max_cycle;Signal;HPM_P1;HPM_P2
2023/11/15 00:01:35;;;;;;;;;0.00;0.00;;;;;13.90;100.00;101380.22;5077655;27;47851;-84
2023/11/15 00:04:00;;;;;;;;;0.00;0.00;;;;;13.90;100.00;101385.47;5078597;27;45401;-84
2023/11/15 00:06:25;;;;;;;;;0.00;0.00;;;;;13.85;100.00;101388.22;5078813;27;45339;-83
2023/11/15 00:08:52;;;;;;;;;0.00;0.00;;;;;13.84;100.00;101381.28;5082162;27;59833;-83
2023/11/15 00:11:18;;;;;;;;;0.00;0.00;;;;;13.83;100.00;101391.78;5098730;27;46318;-83
2023/11/15 00:13:48;;;;;;;;;0.00;0.00;;;;;13.83;100.00;101381.34;5097738;27;45314;-83
2023/11/15 00:16:13;;;;;;;;;0.00;0.00;;;;;13.86;100.00;101387.31;5099168;27;45359;-83
2023/11/15 00:18:38;;;;;;;;;0.00;0.00;;;;;13.83;100.00;101386.56;5099129;27;45295;-84
2023/11/15 00:21:04;;;;;;;;;0.00;0.00;;;;;13.81;100.00;101389.22;5097007;27;62926;-83
2023/11/15 00:23:29;;;;;;;;;0.00;0.00;;;;;13.74;100.00;101403.41;5098922;27;45753;-83
2023/11/15 00:25:55;;;;;;;;;0.00;0.00;;;;;13.67;100.00;101408.00;5090496;27;57082;-83
2023/11/15 00:28:20;;;;;;;;;0.00;0.00;;;;;13.71;100.00;101404.38;5078399;27;45575;-83
2023/11/15 00:30:46;;;;;;;;;0.00;0.00;;;;;13.68;100.00;101417.53;5075809;27;70254;-83
2023/11/15 00:33:11;;;;;;;;;0.00;0.00;;;;;13.71;100.00;101417.44;5077164;27;74788;-83
2023/11/15 00:35:36;;;;;;;;;0.00;0.00;;;;;13.64;100.00;101409.84;5077451;28;56500;-84
2023/11/15 00:38:04;;;;;;;;;0.00;0.00;;;;;13.67;100.00;101404.50;5078373;27;45360;-83
2023/11/15 00:40:29;;;;;;;;;0.00;0.00;;;;;13.70;100.00;101420.94;5077763;27;46751;-83
2023/11/15 00:42:56;;;;;;;;;0.00;0.00;;;;;13.71;100.00;101427.06;5078327;27;45371;-83
2023/11/15 00:45:24;;;;;;;;;0.00;0.00;;;;;13.74;100.00;101426.94;5078103;27;45501;-83
2023/11/15 00:47:49;;;;;;;;;0.00;0.00;;;;;13.75;100.00;101433.91;5078209;28;45537;-83
2023/11/15 00:50:14;;;;;;;;;0.00;0.00;;;;;13.73;100.00;101433.94;5077887;28;46297;-83
2023/11/15 00:52:40;;;;;;;;;0.00;0.00;;;;;13.85;100.00;101434.47;5077411;27;62174;-83
2023/11/15 00:55:06;;;;;;;;;0.00;0.00;;;;;13.84;100.00;101445.84;5075544;28;67042;-83
2023/11/15 00:57:32;;;;;;;;;0.00;0.00;;;;;13.75;100.00;101436.53;5076990;27;45365;-84
2023/11/15 00:59:57;;;;;;;;;0.00;0.00;;;;;13.80;100.00;101452.94;5075559;28;77454;-83
2023/11/15 01:02:32;;;;;;;;;0.00;0.00;;;;;13.83;100.00;101459.84;5077964;27;45343;-83
2023/11/15 01:04:57;;;;;;;;;0.00;0.00;;;;;13.86;100.00;101454.50;5076605;28;45527;-84
2023/11/15 01:07:23;;;;;;;;;0.00;0.00;;;;;13.94;100.00;101449.88;5076195;27;52878;-83
2023/11/15 01:09:49;;;;;;;;;0.00;0.00;;;;;13.84;100.00;101459.78;5075517;28;61382;-83
2023/11/15 01:12:15;;;;;;;;;0.00;0.00;;;;;13.80;100.00;101460.78;5077572;27;45308;-83
2023/11/15 01:14:41;;;;;;;;;0.00;0.00;;;;;13.98;100.00;101474.19;5077807;27;45313;-84
2023/11/15 01:17:06;;;;;;;;;0.00;0.00;;;;;14.00;100.00;101468.00;5092639;27;63013;-84
2023/11/15 01:19:32;;;;;;;;;0.00;0.00;;;;;13.99;100.00;101468.91;5077419;27;47065;-83
2023/11/15 01:22:00;;;;;;;;;0.00;0.00;;;;;14.07;100.00;101485.22;5076240;27;45443;-84
2023/11/15 01:24:29;;;;;;;;;0.00;0.00;;;;;14.06;100.00;101490.50;5075220;27;45332;-84
2023/11/15 01:26:54;;;;;;;;;0.00;0.00;;;;;14.03;100.00;101483.63;5077586;27;45545;-83
2023/11/15 01:29:19;;;;;;;;;0.00;0.00;;;;;14.07;100.00;101484.38;5075650;27;53060;-83
2023/11/15 01:31:45;;;;;;;;;0.00;0.00;;;;;14.02;100.00;101496.75;5059035;28;45794;-83
2023/11/15 01:34:10;;;;;;;;;0.00;0.00;;;;;14.05;100.00;101494.03;5076096;28;45397;-83
2023/11/15 01:36:35;;;;;;;;;0.00;0.00;;;;;14.04;100.00;101481.84;5075507;27;61288;-83
2023/11/15 01:39:01;;;;;;;;;0.00;0.00;;;;;14.05;100.00;101484.44;5075458;28;47784;-83
2023/11/15 01:41:26;;;;;;;;;0.00;0.00;;;;;13.91;100.00;101491.84;5058058;28;74521;-84
2023/11/15 01:43:51;;;;;;;;;0.00;0.00;;;;;14.01;100.00;101481.97;5074988;28;66642;-83
2023/11/15 01:46:18;;;;;;;;;0.00;0.00;;;;;13.98;100.00;101485.50;5076067;27;67041;-83
2023/11/15 01:48:43;;;;;;;;;0.00;0.00;;;;;14.04;100.00;101487.09;5058867;28;47539;-84
2023/11/15 01:51:10;;;;;;;;;0.00;0.00;;;;;14.05;100.00;101492.28;5076073;27;66092;-82
2023/11/15 01:53:35;;;;;;;;;0.00;0.00;;;;;14.07;100.00;101494.84;5075559;27;45570;-84
2023/11/15 01:56:01;;;;;;;;;0.00;0.00;;;;;14.06;100.00;101491.38;5075880;28;45539;-83
2023/11/15 01:58:26;;;;;;;;;0.00;0.00;;;;;14.06;100.00;101501.84;5076951;28;45593;-84
2023/11/15 02:00:52;;;;;;;;;0.00;0.00;;;;;14.09;100.00;101498.28;5076957;28;45374;-84
2023/11/15 02:03:18;;;;;;;;;0.00;0.00;;;;;14.10;100.00;101506.09;5077052;27;45542;-83
2023/11/15 02:05:45;;;;;;;;;0.00;0.00;;;;;14.06;100.00;101504.47;5075666;27;45298;-83
2023/11/15 02:08:10;;;;;;;;;0.00;0.00;;;;;14.08;100.00;101505.28;5075166;28;47734;-82
2023/11/15 02:10:36;;;;;;;;;0.00;0.00;;;;;14.05;100.00;101497.50;5074397;28;72874;-83
2023/11/15 02:13:01;;;;;;;;;0.00;0.00;;;;;14.12;100.00;101506.03;5075570;28;45431;-84
2023/11/15 02:15:26;;;;;;;;;0.00;0.00;;;;;14.10;100.00;101510.47;5076123;28;58036;-83
2023/11/15 02:17:54;;;;;;;;;0.00;0.00;;;;;14.10;100.00;101513.09;5076330;27;58470;-83
2023/11/15 02:20:22;;;;;;;;;0.00;0.00;;;;;14.06;100.00;101511.44;5075409;27;45381;-84
2023/11/15 02:22:51;;;;;;;;;0.00;0.00;;;;;14.03;100.00;101527.28;5058443;28;45362;-84
2023/11/15 02:25:17;;;;;;;;;0.00;0.00;;;;;14.04;100.00;101536.81;5076670;27;45711;-83
2023/11/15 02:27:43;;;;;;;;;0.50;0.50;;;;;13.97;100.00;101537.91;5076631;27;45447;-84
2023/11/15 02:30:10;;;;;;;;;0.00;0.00;;;;;13.97;100.00;101544.03;5074996;27;45421;-83
2023/11/15 02:32:41;;;;;;;;;0.00;0.00;;;;;14.02;100.00;101536.00;5075461;28;45430;-83
2023/11/15 02:35:07;;;;;;;;;0.00;0.00;;;;;13.98;100.00;101534.41;5058263;28;45606;-83
2023/11/15 02:37:36;;;;;;;;;1.00;1.00;;;;;13.97;100.00;101536.16;5074804;27;47206;-83
2023/11/15 02:40:04;;;;;;;;;0.00;0.00;;;;;13.98;100.00;101534.41;5058081;28;45547;-83
2023/11/15 02:42:32;;;;;;;;;0.00;0.00;;;;;13.94;100.00;101539.72;5076464;27;45266;-84
2023/11/15 02:44:58;;;;;;;;;0.00;0.00;;;;;13.96;100.00;101538.81;5076136;27;45411;-83
2023/11/15 02:47:25;;;;;;;;;0.00;0.00;;;;;13.93;100.00;101552.88;5075871;28;57305;-83
2023/11/15 02:49:54;;;;;;;;;0.00;0.00;;;;;13.93;100.00;101555.50;5076236;27;45504;-83
2023/11/15 02:52:19;;;;;;;;;1.50;1.50;;;;;13.96;100.00;101555.38;5074665;28;45447;-83
2023/11/15 02:54:45;;;;;;;;;0.00;0.00;;;;;13.92;100.00;101549.38;5076328;27;45350;-83
2023/11/15 02:57:13;;;;;;;;;0.00;0.00;;;;;13.83;100.00;101559.28;5075983;27;46464;-83
2023/11/15 02:59:38;;;;;;;;;0.00;0.00;;;;;13.81;100.00;101563.69;5075014;28;45465;-83
2023/11/15 03:02:04;;;;;;;;;0.00;0.00;;;;;13.85;100.00;101562.69;5076035;27;48635;-83
2023/11/15 03:04:29;;;;;;;;;0.00;0.00;;;;;13.81;100.00;101564.53;5074916;27;71286;-83
2023/11/15 03:06:54;;;;;;;;;0.00;0.00;;;;;13.78;100.00;101564.66;5057548;28;47222;-84
2023/11/15 03:09:20;;;;;;;;;0.00;0.00;;;;;13.80;100.00;101554.13;5075206;28;59570;-83
2023/11/15 03:11:46;;;;;;;;;0.00;0.00;;;;;13.72;100.00;101552.59;5074903;28;45344;-83
2023/11/15 03:14:11;;;;;;;;;0.00;0.00;;;;;13.65;100.00;101558.91;5076040;28;45654;-84
2023/11/15 03:16:36;;;;;;;;;0.00;0.00;;;;;13.65;100.00;101561.53;5074222;28;57281;-83
2023/11/15 03:19:02;;;;;;;;;0.00;0.00;;;;;13.66;100.00;101550.16;5076077;27;45329;-83
2023/11/15 03:21:28;;;;;;;;;0.00;0.00;;;;;13.62;100.00;101559.00;5075024;28;54002;-83
2023/11/15 03:23:53;;;;;;;;;0.00;0.00;;;;;13.62;100.00;101559.00;5074546;27;45639;-83
2023/11/15 03:26:19;;;;;;;;;0.00;0.00;;;;;13.59;100.00;101571.31;5063596;28;51273;-84
2023/11/15 03:28:44;;;;;;;;;0.00;0.00;;;;;13.61;100.00;101564.25;5054175;28;46904;-83
2023/11/15 03:31:12;;;;;;;;;0.00;0.00;;;;;13.58;100.00;101561.72;5053316;28;63644;-83
2023/11/15 03:33:38;;;;;;;;;0.00;0.00;;;;;13.62;100.00;101561.59;5055420;28;45425;-84
2023/11/15 03:36:03;;;;;;;;;0.00;0.00;;;;;13.60;100.00;101562.56;5054929;28;46443;-83
2023/11/15 03:38:29;;;;;;;;;0.00;0.00;;;;;13.56;100.00;101567.03;5055382;28;45393;-83
2023/11/15 03:40:54;;;;;;;;;0.00;0.00;;;;;13.52;100.00;101567.97;5054471;28;69121;-83
2023/11/15 03:43:19;;;;;;;;;0.00;0.00;;;;;13.59;100.00;101580.00;5055119;28;45579;-83
2023/11/15 03:45:45;;;;;;;;;0.00;0.00;;;;;13.52;100.00;101579.34;5070621;27;47864;-84
2023/11/15 03:48:12;;;;;;;;;0.00;0.00;;;;;13.54;100.00;101588.00;5056333;28;45329;-83
2023/11/15 03:50:40;;;;;;;;;0.00;0.00;;;;;13.48;100.00;101597.75;5040783;28;45329;-83
2023/11/15 03:53:05;;;;;;;;;0.00;0.00;;;;;13.49;100.00;101594.25;5058759;28;45384;-84
2023/11/15 03:55:31;;;;;;;;;0.00;0.00;;;;;13.54;100.00;101593.22;5090814;27;61853;-83
2023/11/15 03:57:56;;;;;;;;;0.00;0.00;;;;;13.55;100.00;101592.31;5057265;28;45953;-82
2023/11/15 04:00:22;;;;;;;;;0.00;0.00;;;;;13.59;100.00;101597.47;5074354;27;45412;-83
2023/11/15 04:02:47;;;;;;;;;0.00;0.00;;;;;13.57;100.00;101589.66;5058600;28;45393;-83
2023/11/15 04:05:15;;;;;;;;;0.00;0.00;;;;;13.61;100.00;101593.88;5058076;28;46594;-83
2023/11/15 04:07:41;;;;;;;;;0.00;0.00;;;;;13.54;100.00;101603.69;5057312;28;45517;-83
2023/11/15 04:10:09;;;;;;;;;0.00;0.00;;;;;13.57;100.00;101592.25;5088519;27;45599;-84
2023/11/15 04:12:34;;;;;;;;;0.00;0.00;;;;;13.59;100.00;101600.06;5077496;27;45485;-84
2023/11/15 04:15:00;;;;;;;;;0.00;0.00;;;;;13.59;100.00;101598.31;5077229;27;46547;-83
2023/11/15 04:17:26;;;;;;;;;0.00;0.00;;;;;13.52;100.00;101592.41;5077232;28;45514;-82
2023/11/15 04:19:51;;;;;;;;;0.00;0.00;;;;;13.60;100.00;101600.03;5075949;27;68368;-84
2023/11/15 04:22:16;;;;;;;;;0.00;0.00;;;;;13.56;100.00;101595.81;5077885;27;56600;-83
2023/11/15 04:24:44;;;;;;;;;0.00;0.00;;;;;13.57;100.00;101601.88;5076110;27;69881;-84
2023/11/15 04:27:09;;;;;;;;;0.00;0.00;;;;;13.60;100.00;101600.03;5078104;27;45311;-83
2023/11/15 04:29:37;;;;;;;;;0.00;0.00;;;;;13.59;100.00;101603.53;5077323;28;45588;-83
2023/11/15 04:32:02;;;;;;;;;0.00;0.00;;;;;13.58;100.00;101607.06;5060307;28;45478;-83
2023/11/15 04:34:27;;;;;;;;;0.00;0.00;;;;;13.61;100.00;101606.97;5076442;27;46112;-82
2023/11/15 04:36:53;;;;;;;;;0.00;0.00;;;;;13.62;100.00;101610.47;5078256;27;45267;-83
2023/11/15 04:39:18;;;;;;;;;0.00;0.00;;;;;13.64;100.00;101613.88;5077463;28;61603;-83
2023/11/15 04:41:44;;;;;;;;;0.00;0.00;;;;;13.65;100.00;101615.59;5078459;28;45473;-83
2023/11/15 04:44:09;;;;;;;;;0.00;0.00;;;;;13.70;100.00;101622.41;5078087;27;46310;-83
2023/11/15 04:46:35;;;;;;;;;0.00;0.00;;;;;13.72;100.00;101612.78;5078072;28;45369;-83
2023/11/15 04:49:00;;;;;;;;;0.00;0.00;;;;;13.78;100.00;101617.00;5058985;28;59839;-83
2023/11/15 04:51:26;;;;;;;;;0.00;0.00;;;;;13.85;100.00;101626.34;5078101;27;45528;-84
2023/11/15 04:53:51;;;;;;;;;0.00;0.00;;;;;13.84;100.00;101629.88;5076745;27;75839;-84
2023/11/15 04:56:17;;;;;;;;;0.00;0.00;;;;;13.85;100.00;101634.19;5076585;27;45855;-83
2023/11/15 04:58:43;;;;;;;;;0.00;0.00;;;;;13.89;100.00;101640.22;5059722;28;45382;-83
2023/11/15 05:01:08;;;;;;;;;0.00;0.00;;;;;13.78;100.00;101647.50;5076360;27;62987;-83
2023/11/15 05:03:34;;;;;;;;;0.00;0.00;;;;;13.83;100.00;101648.25;5076218;28;45554;-83
2023/11/15 05:05:59;;;;;;;;;0.00;0.00;;;;;13.84;100.00;101649.97;5075483;28;73119;-83
2023/11/15 05:08:24;;;;;;;;;0.00;0.00;;;;;13.87;100.00;101655.97;5059139;27;63587;-83
2023/11/15 05:10:50;;;;;;;;;0.00;0.00;;;;;13.88;100.00;101659.44;5098164;27;45295;-83
2023/11/15 05:13:16;;;;;;;;;0.00;0.00;;;;;13.94;100.00;101660.13;5096351;27;55014;-83
2023/11/15 05:15:42;;;;;;;;;0.00;0.00;;;;;13.93;100.00;101654.94;5097676;27;45661;-83
2023/11/15 05:18:07;;;;;;;;;0.00;0.00;;;;;13.92;100.00;101654.06;5098096;27;45379;-83
2023/11/15 05:20:33;;;;;;;;;0.00;0.00;;;;;13.88;100.00;101648.97;5096959;27;45352;-84
2023/11/15 05:22:58;;;;;;;;;0.00;0.00;;;;;13.92;100.00;101650.59;5079541;27;48165;-83
2023/11/15 05:25:24;;;;;;;;;0.00;0.00;;;;;13.93;100.00;101655.81;5094968;27;45379;-84
2023/11/15 05:27:53;;;;;;;;;0.00;0.00;;;;;13.90;100.00;101655.88;5075319;28;69216;-84
2023/11/15 05:30:18;;;;;;;;;0.00;0.00;;;;;13.88;100.00;101668.16;5075809;28;45557;-83
2023/11/15 05:32:44;;;;;;;;;0.00;0.00;;;;;13.92;100.00;101666.31;5077332;27;45413;-83
2023/11/15 05:35:10;;;;;;;;;0.00;0.00;;;;;13.94;100.00;101669.75;5077239;27;45353;-83
2023/11/15 05:37:36;;;;;;;;;0.00;0.00;;;;;13.89;100.00;101675.13;5076182;28;45411;-83
2023/11/15 05:40:02;;;;;;;;;0.00;0.00;;;;;13.84;100.00;101677.00;5077454;27;45317;-84
2023/11/15 05:42:27;;;;;;;;;0.00;0.00;;;;;13.87;100.00;101669.06;5077009;27;46037;-83
2023/11/15 05:44:52;;;;;;;;;0.00;0.00;;;;;13.85;100.00;101670.00;5076406;27;54561;-83
2023/11/15 05:47:18;;;;;;;;;0.00;0.00;;;;;13.84;100.00;101671.75;5076223;28;45339;-83
2023/11/15 05:49:44;;;;;;;;;0.00;0.00;;;;;13.85;100.00;101668.22;5075723;28;47837;-83
2023/11/15 05:52:11;;;;;;;;;0.00;0.00;;;;;13.90;100.00;101670.72;5075686;28;47135;-84
2023/11/15 05:54:37;;;;;;;;;0.00;0.00;;;;;13.87;100.00;101669.06;5075805;28;45409;-84
2023/11/15 05:57:04;;;;;;;;;0.00;0.00;;;;;13.84;100.00;101684.84;5059063;28;45353;-83
2023/11/15 05:59:29;;;;;;;;;0.00;0.00;;;;;13.80;100.00;101682.34;5076729;27;45383;-83
2023/11/15 06:01:54;;;;;;;;;0.00;0.00;;;;;13.74;100.00;101680.75;5076143;27;72356;-83
2023/11/15 06:04:20;;;;;;;;;0.00;0.00;;;;;13.72;100.00;101680.81;5075496;28;45355;-84
2023/11/15 06:06:46;;;;;;;;;0.00;0.00;;;;;13.72;100.00;101677.31;5058822;28;45372;-83
2023/11/15 06:09:14;;;;;;;;;0.00;0.00;;;;;13.70;100.00;101681.75;5075822;27;70614;-83
2023/11/15 06:11:42;;;;;;;;;0.00;0.00;;;;;13.65;100.00;101681.00;5075239;28;46403;-84
2023/11/15 06:14:07;;;;;;;;;0.00;0.00;;;;;13.68;100.00;101686.16;5075197;28;45462;-83
2023/11/15 06:16:36;;;;;;;;;0.00;0.00;;;;;13.71;100.00;101689.56;5075663;27;45445;-83
2023/11/15 06:19:01;;;;;;;;;0.00;0.00;;;;;13.73;100.00;101700.84;5076858;27;45374;-83
2023/11/15 06:21:27;;;;;;;;;0.00;0.00;;;;;13.73;100.00;101705.22;5074677;28;65090;-83
2023/11/15 06:23:54;;;;;;;;;0.00;0.00;;;;;13.78;100.00;101707.69;5075338;28;45441;-83
2023/11/15 06:26:19;;;;;;;;;0.00;0.00;;;;;13.69;100.00;101707.06;5075418;27;45425;-84
2023/11/15 06:28:48;;;;;;;;;0.00;0.00;;;;;13.71;100.00;101705.25;5075071;27;45669;-84
2023/11/15 06:31:13;;;;;;;;;0.00;0.00;;;;;13.79;100.00;101709.41;5074912;28;47160;-83
2023/11/15 06:33:38;;;;;;;;;0.00;0.00;;;;;13.79;100.00;101710.28;5075493;28;73010;-83
2023/11/15 06:36:04;;;;;;;;;0.00;0.00;;;;;13.79;100.00;101722.50;5074119;28;67971;-83
2023/11/15 06:38:29;;;;;;;;;0.00;0.00;;;;;13.81;100.00;101715.47;5076411;28;45505;-83
2023/11/15 06:40:59;;;;;;;;;0.00;0.00;;;;;13.74;100.00;101718.25;5076174;28;46091;-83
2023/11/15 06:43:24;;;;;;;;;0.00;0.00;;;;;13.71;100.00;101718.34;5075973;27;45352;-83
2023/11/15 06:45:49;;;;;;;;;0.00;0.00;;;;;13.67;100.00;101713.19;5074093;27;69720;-83
2023/11/15 06:48:16;;;;;;;;;0.00;0.00;;;;;13.58;100.00;101722.19;5076327;28;45340;-83
2023/11/15 06:50:42;;;;;;;;;0.00;0.00;;;;;13.49;100.00;101723.25;5076303;27;45482;-83
2023/11/15 06:53:07;;;;;;;;;0.00;0.00;;;;;13.47;100.00;101722.44;5075136;28;73022;-83
2023/11/15 06:55:33;;;;;;;;;0.00;0.00;;;;;13.42;100.00;101721.69;5075064;27;45432;-83
2023/11/15 06:57:59;;;;;;;;;0.00;0.00;;;;;13.43;100.00;101720.81;5056707;28;70295;-83
2023/11/15 07:00:25;;;;;;;;;0.00;0.00;;;;;13.41;100.00;101721.72;5075870;27;47380;-83
2023/11/15 07:02:51;;;;;;;;;0.00;0.00;;;;;13.35;100.00;101731.47;5074666;27;45499;-83
2023/11/15 07:05:16;;;;;;;;;0.00;0.00;;;;;13.36;100.00;101737.53;5074120;28;63989;-83
2023/11/15 07:07:41;;;;;;;;;0.00;0.00;;;;;13.32;100.00;101733.28;5073964;28;68350;-83
2023/11/15 07:10:07;;;;;;;;;0.00;0.00;;;;;13.32;100.00;101741.13;5070614;28;62521;-83
2023/11/15 07:12:36;;;;;;;;;0.00;0.00;;;;;13.29;100.00;101747.25;5055136;28;45389;-83
2023/11/15 07:15:04;;;;;;;;;0.00;0.00;;;;;13.26;100.00;101749.97;5055455;28;45279;-84
2023/11/15 07:17:31;;;;;;;;;0.00;0.00;;;;;13.27;100.00;101751.66;5055669;28;45486;-83
2023/11/15 07:19:57;;;;;;;;;0.00;0.00;;;;;13.24;100.00;101753.47;5054227;28;48211;-83
2023/11/15 07:22:22;;;;;;;;;0.00;0.00;;;;;13.23;100.00;101754.41;5054371;28;45335;-83
2023/11/15 07:24:47;;;;;;;;;0.00;0.00;;;;;13.15;100.00;101775.50;5058046;28;45453;-84
2023/11/15 07:27:13;;;;;;;;;0.00;0.00;;;;;13.16;100.00;101778.03;5075535;27;45342;-83
2023/11/15 07:29:39;;;;;;;;;0.00;0.00;;;;;13.16;100.00;101782.44;5077772;27;47612;-84
2023/11/15 07:32:07;;;;;;;;;1.00;1.00;;;;;13.21;100.00;101790.19;5078074;27;45453;-86
2023/11/15 07:34:34;;;;;;;;;0.00;0.00;;;;;13.21;100.00;101793.66;5078293;27;45419;-86
2023/11/15 07:36:59;;;;;;;;;0.00;0.00;;;;;13.20;100.00;101794.53;5061405;28;45413;-82
2023/11/15 07:39:25;;;;;;;;;0.00;0.00;;;;;13.23;100.00;101804.94;5079253;27;45462;-81
2023/11/15 07:41:51;;;;;;;;;0.00;0.00;;;;;13.26;100.00;101806.59;5078945;27;45401;-86
2023/11/15 07:44:18;;;;;;;;;0.00;0.00;;;;;13.25;100.00;101804.91;5095712;27;45506;-87
2023/11/15 07:46:49;;;;;;;;;0.00;0.00;;;;;13.16;100.00;101808.56;5083231;27;45621;-85
2023/11/15 07:49:18;;;;;;;;;0.00;0.00;;;;;13.18;100.00;101822.47;5077669;28;46317;-85
2023/11/15 07:51:44;;;;;;;;;0.00;0.00;;;;;13.26;100.00;101817.94;5078463;27;45403;-85
2023/11/15 07:54:10;;;;;;;;;0.00;0.00;;;;;13.21;100.00;101819.78;5079263;27;45566;-84
2023/11/15 07:56:35;;;;;;;;;0.00;0.00;;;;;13.31;100.00;101813.47;5075676;28;70574;-79
2023/11/15 07:59:00;;;;;;;;;0.00;0.00;;;;;13.35;100.00;101827.34;5076815;28;46047;-84
2023/11/15 08:01:26;;;;;;;;;0.00;0.00;;;;;13.34;100.00;101826.47;5077137;28;45567;-85
2023/11/15 08:03:53;;;;;;;;;0.00;0.00;;;;;13.44;100.00;101829.75;5076127;28;70372;-85
2023/11/15 08:06:18;;;;;;;;;0.00;0.00;;;;;13.38;100.00;101824.66;5057223;28;45494;-85
2023/11/15 08:08:43;;;;;;;;;0.00;0.00;;;;;13.49;100.00;101825.25;5060570;28;46219;-84
2023/11/15 08:11:10;;;;;;;;;0.00;0.00;;;;;13.53;100.00;101821.66;5077730;28;60643;-82
2023/11/15 08:13:35;;;;;;;;;0.00;0.00;;;;;13.45;100.00;101836.69;5077363;28;45354;-85
2023/11/15 08:16:01;;;;;;;;;0.00;0.00;;;;;13.54;100.00;101823.41;5058992;28;66830;-82
2023/11/15 08:18:26;;;;;;;;;0.00;0.00;;;;;13.50;100.00;101842.69;5076844;27;47180;-80
2023/11/15 08:20:52;;;;;;;;;0.00;0.00;;;;;13.51;100.00;101841.78;5077674;28;45242;-80
2023/11/15 08:23:18;;;;;;;;;0.00;0.00;;;;;13.62;100.00;101840.69;5076990;27;45224;-80
2023/11/15 08:25:50;;;;;;;;;0.00;0.00;;;;;13.61;100.00;101847.66;5077347;27;45538;-81
2023/11/15 08:28:16;;;;;;;;;0.00;0.00;;;;;13.66;100.00;101848.41;5076384;28;46591;-81
2023/11/15 08:30:45;;;;;;;;;0.00;0.00;;;;;13.68;100.00;101859.69;5074161;27;45473;-81
2023/11/15 08:33:10;;;;;;;;;0.00;0.00;;;;;13.75;100.00;101850.78;5076824;28;45288;-81
2023/11/15 08:35:36;;;;;;;;;0.00;0.00;;;;;13.90;100.00;101867.88;5070426;28;45488;-81
2023/11/15 08:38:01;;;;;;;;;0.00;0.00;;;;;14.00;100.00;101867.66;5076682;28;74906;-80
2023/11/15 08:40:27;;;;;;;;;0.00;0.00;;;;;14.10;100.00;101864.75;5076417;28;45590;-81
2023/11/15 08:42:52;;;;;;;;;0.00;0.00;;;;;14.19;100.00;101866.28;5072431;27;45409;-81
2023/11/15 08:45:19;;;;;;;;;0.00;0.00;;;;;14.20;100.00;101868.00;5062848;28;70455;-81
2023/11/15 08:47:44;;;;;;;;;0.00;0.00;;;;;14.23;100.00;101870.53;5066120;27;46155;-81
2023/11/15 08:50:10;;;;;;;;;0.00;0.00;;;;;14.26;100.00;101872.22;5072222;28;72191;-80
2023/11/15 08:52:42;;;;;;;;;0.00;0.00;;;;;14.34;100.00;101870.28;5071293;27;45262;-79
2023/11/15 08:55:16;;;;;;;;;0.00;0.00;;;;;14.33;100.00;101869.38;5072126;27;46443;-79
2023/11/15 08:57:42;;;;;;;;;0.00;0.00;;;;;14.42;100.00;101872.69;5090038;27;45626;-80
2023/11/15 09:00:15;;;;;;;;;0.00;0.00;;;;;14.46;100.00;101866.44;5079214;27;45429;-79
2023/11/15 09:02:44;;;;;;;;;0.00;0.00;;;;;14.51;100.00;101870.66;5078381;27;45692;-80
2023/11/15 09:05:13;;;;;;;;;0.00;0.00;;;;;14.67;100.00;101871.16;5076474;27;45349;-80
2023/11/15 09:07:39;;;;;;;;;0.00;0.00;;;;;14.75;100.00;101875.31;5076026;28;46352;-80
2023/11/15 09:10:08;;;;;;;;;0.00;0.00;;;;;14.74;100.00;101866.56;5074924;28;45312;-80
2023/11/15 09:12:34;;;;;;;;;0.00;0.00;;;;;14.81;100.00;101860.25;5075366;27;45480;-80
2023/11/15 09:14:59;;;;;;;;;0.00;0.00;;;;;14.87;100.00;101857.44;5081069;27;45386;-79
2023/11/15 09:17:25;;;;;;;;;0.00;0.00;;;;;14.96;100.00;101852.84;5076969;27;46363;-80
2023/11/15 09:19:56;;;;;;;;;0.00;0.00;;;;;14.95;100.00;101872.09;5072811;28;71921;-80
2023/11/15 09:22:21;;;;;;;;;3.00;0.00;;;;;15.05;100.00;101855.22;5097944;27;45340;-80
2023/11/15 09:24:51;;;;;;;;;0.00;0.00;;;;;15.00;100.00;101859.72;5088028;27;45854;-80
2023/11/15 09:27:17;;;;;;;;;0.00;0.00;;;;;15.02;100.00;101850.88;5069640;27;46543;-78
2023/11/15 09:29:42;;;;;;;;;0.00;0.00;;;;;15.08;100.00;101857.72;5102152;27;63067;-78
2023/11/15 09:32:10;;;;;;;;;0.00;0.00;;;;;15.07;100.00;101853.38;5079005;27;67904;-80
2023/11/15 09:34:38;;;;;;;;;0.00;0.00;;;;;15.04;100.00;101861.34;5083790;27;45639;-80
2023/11/15 09:37:04;;;;;;;;;0.00;0.00;;;;;15.20;100.00;101861.75;5080710;27;45403;-80
2023/11/15 09:39:29;;;;;;;;;0.00;0.00;;;;;15.26;100.00;101848.44;5077204;27;70226;-80
2023/11/15 09:41:55;;;;;;;;;0.00;0.00;;;;;15.31;100.00;101851.78;5075331;27;45464;-80
2023/11/15 09:44:23;;;;;;;;;0.00;0.00;;;;;15.37;100.00;101850.75;5067280;27;45399;-80
2023/11/15 09:46:52;;;;;;;;;0.00;0.00;;;;;15.46;100.00;101853.91;5072088;27;46537;-80
2023/11/15 09:49:18;;;;;;;;;0.00;0.00;;;;;15.51;100.00;101851.16;5092242;27;45571;-80
2023/11/15 09:51:44;;;;;;;;;0.00;0.00;;;;;15.51;100.00;101853.78;5077579;27;58189;-80
2023/11/15 09:54:12;;;;;;;;;0.00;0.00;;;;;15.55;100.00;101855.41;5071874;27;45726;-81
2023/11/15 09:56:38;;;;;;;;;0.00;0.00;;;;;15.60;100.00;101855.25;5079012;27;46489;-81
2023/11/15 09:59:03;;;;;;;;;0.00;0.00;;;;;15.64;100.00;101854.25;5079842;27;45520;-81
2023/11/15 10:01:28;;;;;;;;;0.00;0.00;;;;;15.57;100.00;101858.84;5075759;27;45416;-82
2023/11/15 10:03:55;;;;;;;;;0.00;0.00;;;;;15.51;100.00;101863.41;5076233;27;45462;-81
2023/11/15 10:06:20;;;;;;;;;0.00;0.00;;;;;15.62;100.00;101845.56;5085284;27;46077;-81
2023/11/15 10:08:53;;;;;;;;;0.00;0.00;;;;;15.61;100.00;101854.34;5069325;27;71025;-80
2023/11/15 10:11:20;;;;;;;;;0.00;0.00;;;;;15.68;100.00;101866.38;5066969;27;45597;-81
2023/11/15 10:13:49;;;;;;;;;0.00;0.00;;;;;15.71;100.00;101862.78;5082922;27;45659;-81
2023/11/15 10:16:30;;;;;;;;;0.00;0.00;;;;;15.80;100.00;101852.00;5090785;27;47029;-80
2023/11/15 10:18:56;;;;;;;;;0.00;0.00;;;;;15.91;100.00;101856.91;5086622;27;45319;-81
2023/11/15 10:21:22;;;;;;;;;0.00;0.00;;;;;15.92;100.00;101862.13;5075415;27;45448;-82
2023/11/15 10:23:48;;;;;;;;;0.00;0.00;;;;;16.11;100.00;101867.59;5075057;27;45336;-81
2023/11/15 10:26:14;;;;;;;;;0.00;0.00;;;;;16.15;100.00;101873.59;5073637;28;46668;-82
2023/11/15 10:28:39;;;;;;;;;0.00;0.00;;;;;16.44;100.00;101867.34;5065996;28;45649;-81
2023/11/15 10:31:07;;;;;;;;;0.00;0.00;;;;;16.62;100.00;101866.69;5065397;28;54969;-81
2023/11/15 10:33:34;;;;;;;;;0.00;0.00;;;;;16.90;100.00;101864.81;5079454;27;45509;-81
2023/11/15 10:36:19;;;;;;;;;0.00;0.00;;;;;17.13;100.00;101867.44;5074031;28;46047;-81
2023/11/15 10:38:50;;;;;;;;;0.00;0.00;;;;;17.34;100.00;101862.25;5076140;27;45328;-81
2023/11/15 10:41:19;;;;;;;;;0.00;0.00;;;;;17.52;100.00;101861.53;5083868;27;45347;-82
2023/11/15 10:43:48;;;;;;;;;0.00;0.00;;;;;17.85;100.00;101868.13;5055352;28;45669;-81
2023/11/15 10:46:15;;;;;;;;;0.00;0.00;;;;;18.01;100.00;101871.00;5069334;27;46742;-81
2023/11/15 10:48:44;;;;;;;;;0.00;0.00;;;;;18.18;100.00;101869.38;5086012;27;45314;-81
2023/11/15 10:51:17;;;;;;;;;0.00;0.00;;;;;19.10;100.00;101867.03;5075086;27;45314;-82
2023/11/15 10:53:43;;;;;;;;;0.00;0.00;;;;;21.65;100.00;101863.50;5080850;27;45493;-81
2023/11/15 10:56:11;;;;;;;;;0.00;0.00;;;;;23.13;100.00;101865.22;5062316;27;45332;-82
2023/11/15 10:58:39;;;;;;;;;0.00;0.00;;;;;24.22;100.00;101858.94;5073650;27;45464;-82
2023/11/15 11:01:06;;;;;;;;;0.00;0.00;;;;;24.35;100.00;101873.09;5085654;27;45335;-81
2023/11/15 11:03:31;;;;;;;;;0.00;0.00;;;;;25.04;91.77;101876.22;5071165;28;45459;-82
2023/11/15 11:06:08;;;;;;;;;0.00;0.00;;;;;25.90;82.76;101871.69;5073001;27;59453;-81
2023/11/15 11:08:45;;;;;;;;;0.00;0.00;;;;;26.88;79.98;101876.56;5066930;27;45554;-80
2023/11/15 11:11:11;;;;;;;;;0.00;0.00;;;;;27.47;73.48;101864.69;5072804;27;45458;-80
2023/11/15 11:13:40;;;;;;;;;0.00;0.00;;;;;27.64;75.03;101852.56;5072055;27;45259;-79